Terminal Aerodrome Forecast
Issued by NWS

Home | Current Version | Previous Version | Text Only | Print | Product List | Glossary On
Versions: 1 2 3 4 5 6 7 8 9 10 11 12 13 14 15 16 17 18
000
FTUS41 KBGM 262337
TAFITH
TAF
KITH 262337Z 2700/2724 17012KT P6SM -SHRA OVC015
      TEMPO 2703/2706 3SM SHRA BR OVC008
     FM270700 18004KT P6SM SCT015 BKN040
      TEMPO 2707/2710 BKN015
     FM271300 23008KT P6SM SCT040=

USA.gov is the U.S. government's official web portal to all federal, state and local government web resources and services.